Time;durP1;ratioP1;P1;durP2;ratioP2;P2;SDS_P1;SDS_P2;PMS_P1;PMS_P2;Temp;Humidity;BMP_temperature;BMP_pressure;BME280_temperature;BME280_humidity;BME280_pressure;Samples;Min_cycle;Max_cycle;Signal;HPM_P1;HPM_P2
2023/01/29 00:00:31;;;;;;;34.00;17.48;;;;;;;1.26;100.00;100359.97;10416653;28;20053;-77
2023/01/29 00:05:34;;;;;;;39.13;16.13;;;;;;;1.34;100.00;100375.09;10416719;28;20049;-78
2023/01/29 00:10:35;;;;;;;38.13;16.35;;;;;;;1.34;100.00;100375.94;10416690;28;20076;-77
2023/01/29 00:15:35;;;;;;;38.40;16.13;;;;;;;1.24;100.00;100364.44;10415522;28;20080;-77
2023/01/29 00:20:36;;;;;;;38.88;16.67;;;;;;;1.34;100.00;100368.06;10415609;28;20073;-77
2023/01/29 00:25:37;;;;;;;36.70;17.25;;;;;;;1.36;100.00;100358.34;10415296;28;20052;-77
2023/01/29 00:30:38;;;;;;;40.22;16.80;;;;;;;1.46;100.00;100366.38;10416516;28;20046;-77
2023/01/29 00:35:40;;;;;;;36.80;17.40;;;;;;;1.43;100.00;100369.22;10416113;28;20393;-78
2023/01/29 00:46:00;;;;;;;44.47;15.93;;;;;;;1.23;100.00;100348.88;10391290;28;20053;-77
2023/01/29 00:51:02;;;;;;;43.65;16.85;;;;;;;1.33;100.00;100357.72;10414908;28;20103;-77
2023/01/29 00:56:03;;;;;;;45.22;17.38;;;;;;;1.26;100.00;100346.03;10414753;28;20037;-77
2023/01/29 01:01:04;;;;;;;34.38;16.25;;;;;;;1.43;100.00;100357.91;10415455;28;20045;-77
2023/01/29 01:06:06;;;;;;;46.47;17.90;;;;;;;1.45;100.00;100361.28;10415022;28;20187;-77
2023/01/29 01:11:08;;;;;;;43.13;16.77;;;;;;;1.10;100.00;100320.94;10414084;28;20038;-77
2023/01/29 01:16:10;;;;;;;39.75;17.88;;;;;;;1.24;100.00;100346.13;10414369;28;20170;-77
2023/01/29 01:21:11;;;;;;;37.22;15.93;;;;;;;1.24;100.00;100337.44;10413749;28;20045;-77
2023/01/29 01:26:12;;;;;;;35.40;16.30;;;;;;;1.40;100.00;100360.75;10414270;28;20562;-77
2023/01/29 01:31:14;;;;;;;38.10;15.57;;;;;;;0.90;100.00;100267.41;10413302;28;20143;-77
2023/01/29 01:36:16;;;;;;;37.42;15.88;;;;;;;1.43;100.00;100342.22;10413520;28;20040;-77
2023/01/29 01:41:19;;;;;;;32.20;15.38;;;;;;;1.45;100.00;100345.56;10414010;28;20042;-77
2023/01/29 01:46:21;;;;;;;34.15;17.55;;;;;;;1.45;100.00;100354.25;10412930;28;20068;-77
2023/01/29 01:51:25;;;;;;;39.88;15.25;;;;;;;1.47;100.00;100359.38;10412528;28;20037;-77
2023/01/29 01:56:37;;;;;;;30.98;15.18;;;;;;;1.50;100.00;100361.78;10411000;28;20056;-77
2023/01/29 02:01:41;;;;;;;36.95;17.58;;;;;;;1.36;100.00;100345.25;10389171;28;20041;-77
2023/01/29 02:12:05;;;;;;;30.60;16.38;;;;;;;0.84;100.00;100274.88;10406141;28;20576;-77
2023/01/29 02:17:10;;;;;;;34.13;16.65;;;;;;;1.31;100.00;100352.59;10380060;28;20037;-77
2023/01/29 02:23:02;;;;;;;34.60;16.88;;;;;;;1.48;100.00;100356.66;10378938;28;20138;-77
2023/01/29 02:28:25;;;;;;;33.40;16.63;;;;;;;1.46;100.00;100352.47;10402687;28;20053;-77
2023/01/29 02:33:38;;;;;;;33.90;16.63;;;;;;;1.37;100.00;100359.19;10408548;28;20045;-77
2023/01/29 02:39:17;;;;;;;39.78;18.73;;;;;;;0.40;100.00;100203.81;10380495;28;20054;-77
2023/01/29 02:44:39;;;;;;;63.20;17.63;;;;;;;1.08;100.00;100312.38;10380975;28;20054;-78
2023/01/29 02:49:47;;;;;;;68.45;20.05;;;;;;;1.15;100.00;100328.47;10378705;28;20042;-77
2023/01/29 02:55:10;;;;;;;90.15;22.08;;;;;;;1.29;100.00;100351.06;10378792;28;20042;-78
2023/01/29 03:00:14;;;;;;;115.25;21.17;;;;;;;0.87;100.00;100278.09;10379237;28;20033;-77
2023/01/29 03:05:23;;;;;;;39.83;17.92;;;;;;;1.12;100.00;100307.75;10378736;28;20123;-77
2023/01/29 03:10:30;;;;;;;46.13;19.77;;;;;;;1.35;100.00;100340.97;10376900;28;20164;-77
2023/01/29 03:15:41;;;;;;;41.20;19.65;;;;;;;0.79;100.00;100259.47;10377432;28;20046;-77
2023/01/29 03:20:57;;;;;;;30.77;15.98;;;;;;;1.12;100.00;100315.59;10378096;28;20037;-78
2023/01/29 03:36:44;;;;;;;35.55;17.48;;;;;;;1.42;100.00;100349.22;10376691;28;20038;-75
2023/01/29 03:41:52;;;;;;;41.40;20.45;;;;;;;1.45;100.00;100363.88;10375488;28;20466;-75
2023/01/29 03:47:06;;;;;;;34.67;19.85;;;;;;;1.01;100.00;100284.94;10376216;28;20061;-75
2023/01/29 03:52:24;;;;;;;36.08;19.55;;;;;;;1.37;100.00;100340.84;10376691;28;20100;-75
2023/01/29 03:57:44;;;;;;;49.63;23.40;;;;;;;1.49;100.00;100358.31;10375813;28;20048;-76
2023/01/29 04:02:52;;;;;;;35.03;17.52;;;;;;;1.27;100.00;100332.84;10377008;28;20449;-77
2023/01/29 04:07:59;;;;;;;39.22;23.20;;;;;;;1.38;100.00;100366.09;10375500;28;20391;-75
2023/01/29 04:13:04;;;;;;;30.60;16.55;;;;;;;0.70;100.00;100259.28;10376313;28;20060;-75
2023/01/29 04:18:05;;;;;;;42.97;20.02;;;;;;;1.21;100.00;100362.06;10376358;28;20375;-75
2023/01/29 04:23:18;;;;;;;52.17;27.05;;;;;;;1.33;100.00;100362.97;10375141;28;20050;-76
2023/01/29 04:28:27;;;;;;;37.72;19.33;;;;;;;1.23;100.00;100349.72;10375656;28;20172;-76
2023/01/29 04:33:45;;;;;;;35.50;17.98;;;;;;;1.38;100.00;100371.34;10381404;28;20060;-74
2023/01/29 04:38:51;;;;;;;54.67;30.80;;;;;;;1.23;100.00;100352.31;10415355;28;20106;-76
2023/01/29 04:44:07;;;;;;;39.30;19.60;;;;;;;1.39;100.00;100382.66;10414826;28;20432;-75
2023/01/29 04:49:36;;;;;;;39.90;20.15;;;;;;;1.49;100.00;100378.41;10415548;28;20509;-75
2023/01/29 04:54:46;;;;;;;33.22;18.05;;;;;;;1.53;100.00;100385.13;10415097;28;20413;-76
2023/01/29 04:59:55;;;;;;;29.63;17.05;;;;;;;1.53;100.00;100403.47;10414874;28;20460;-75
2023/01/29 05:04:58;;;;;;;25.95;16.23;;;;;;;1.10;100.00;100341.84;10414931;28;20060;-75
2023/01/29 05:09:59;;;;;;;28.35;17.08;;;;;;;1.30;100.00;100364.03;10413999;28;20052;-75
2023/01/29 05:15:04;;;;;;;26.88;16.02;;;;;;;1.16;100.00;100322.28;10414060;28;20064;-75
2023/01/29 05:20:06;;;;;;;35.33;15.95;;;;;;;1.47;100.00;100369.84;10413719;28;20041;-76
2023/01/29 05:25:26;;;;;;;27.77;15.73;;;;;;;1.94;100.00;100397.00;10413879;28;20395;-76
2023/01/29 05:30:27;;;;;;;30.92;19.23;;;;;;;1.86;100.00;100378.41;10414316;28;20132;-76
2023/01/29 05:35:28;;;;;;;26.30;16.90;;;;;;;1.99;100.00;100381.81;10413528;28;20453;-76
2023/01/29 05:40:29;;;;;;;35.47;17.20;;;;;;;2.16;100.00;100388.44;10413695;28;20121;-76
2023/01/29 05:45:30;;;;;;;30.88;16.73;;;;;;;2.21;100.00;100381.06;10413140;28;20573;-76
2023/01/29 05:50:31;;;;;;;30.85;15.93;;;;;;;1.87;100.00;100325.06;10413805;28;20053;-76
2023/01/29 05:55:33;;;;;;;31.73;18.13;;;;;;;1.92;100.00;100313.31;10412417;28;20136;-76
2023/01/29 06:00:34;;;;;;;24.90;15.27;;;;;;;1.81;100.00;100285.28;10402758;28;20432;-77
2023/01/29 06:05:38;;;;;;;28.92;17.30;;;;;;;2.33;100.00;100377.53;10384956;28;20055;-78
2023/01/29 06:10:39;;;;;;;32.20;16.73;;;;;;;1.42;100.00;100213.13;10392915;28;20379;-80
2023/01/29 06:15:40;;;;;;;27.88;16.38;;;;;;;2.04;100.00;100290.59;10413243;28;20037;-75
2023/01/29 06:20:40;;;;;;;33.67;19.70;;;;;;;2.54;100.00;100363.75;10417245;28;20045;-77
2023/01/29 06:25:41;;;;;;;30.45;17.35;;;;;;;2.71;100.00;100372.03;10409167;28;20452;-76
2023/01/29 06:30:42;;;;;;;28.70;15.55;;;;;;;2.33;100.00;100298.88;10395544;28;20044;-76
2023/01/29 06:35:42;;;;;;;33.20;18.35;;;;;;;2.74;99.79;100352.59;10403940;28;20428;-77
2023/01/29 06:40:43;;;;;;;28.48;17.92;;;;;;;2.81;99.53;100358.19;10392464;28;20116;-74
2023/01/29 06:45:52;;;;;;;26.38;16.60;;;;;;;2.39;98.34;100292.34;10387743;28;20064;-76
2023/01/29 06:50:54;;;;;;;28.65;17.25;;;;;;;2.94;99.05;100370.25;10392719;28;20120;-76
2023/01/29 06:55:54;;;;;;;30.90;18.00;;;;;;;2.93;98.89;100363.34;10391897;28;20045;-76
2023/01/29 07:01:06;;;;;;;28.05;15.07;;;;;;;3.03;97.82;100360.84;10394533;28;20053;-76
2023/01/29 07:06:07;;;;;;;32.15;15.32;;;;;;;2.54;98.77;100267.56;10392740;28;20040;-76
2023/01/29 07:11:08;;;;;;;31.17;16.67;;;;;;;2.88;98.19;100280.69;10391171;28;20048;-76
2023/01/29 07:16:08;;;;;;;37.55;17.00;;;;;;;3.31;97.54;100356.88;10393889;28;20045;-76
2023/01/29 07:21:09;;;;;;;30.67;15.70;;;;;;;3.39;97.33;100348.41;10389030;28;20402;-76
2023/01/29 07:26:11;;;;;;;33.22;16.77;;;;;;;3.33;97.14;100317.41;10392667;28;20099;-76
2023/01/29 07:31:13;;;;;;;48.10;26.88;;;;;;;3.30;96.42;100257.25;10391740;28;20041;-76
2023/01/29 07:36:14;;;;;;;71.20;36.17;;;;;;;4.01;95.62;100333.78;10390440;28;20033;-75
2023/01/29 07:41:15;;;;;;;48.05;24.33;;;;;;;4.04;94.52;100315.97;10386203;28;20038;-74
2023/01/29 07:46:16;;;;;;;40.47;21.75;;;;;;;4.37;94.37;100337.81;10396393;28;20056;-75
2023/01/29 07:51:17;;;;;;;39.10;22.10;;;;;;;4.48;92.98;100324.56;10392924;28;20096;-75
2023/01/29 07:56:18;;;;;;;43.30;23.42;;;;;;;4.44;93.31;100310.00;10391432;28;20070;-75
2023/01/29 08:01:18;;;;;;;35.25;19.02;;;;;;;4.63;93.20;100304.03;10388752;28;20048;-75
2023/01/29 08:06:19;;;;;;;34.88;19.48;;;;;;;4.43;92.78;100254.91;10392880;28;20045;-79
2023/01/29 08:11:20;;;;;;;37.78;21.38;;;;;;;4.61;91.42;100271.75;10388321;28;20098;-74
2023/01/29 08:16:21;;;;;;;35.35;20.10;;;;;;;4.45;91.11;100274.03;10388598;28;20068;-80
2023/01/29 08:21:21;;;;;;;30.48;18.58;;;;;;;3.82;91.12;100158.41;10390844;28;20048;-78
2023/01/29 08:26:22;;;;;;;38.20;20.67;;;;;;;4.23;91.06;100217.16;10392190;28;20045;-78
2023/01/29 08:31:23;;;;;;;31.48;18.58;;;;;;;4.70;91.39;100270.16;10385095;28;20038;-78
2023/01/29 08:36:24;;;;;;;37.72;19.05;;;;;;;4.77;90.98;100263.38;10382398;28;20505;-77
2023/01/29 08:41:24;;;;;;;34.42;18.67;;;;;;;4.76;91.11;100256.47;10390397;28;20038;-78
2023/01/29 08:46:25;;;;;;;36.67;19.92;;;;;;;4.83;90.58;100249.69;10389128;28;20058;-78
2023/01/29 08:51:26;;;;;;;32.42;19.02;;;;;;;4.97;90.72;100253.75;10388309;28;20049;-78
2023/01/29 08:56:27;;;;;;;37.40;21.67;;;;;;;3.77;89.66;100102.78;10387137;28;20038;-78
2023/01/29 09:01:27;;;;;;;39.55;21.90;;;;;;;4.18;91.03;100162.31;10389303;28;20037;-78
2023/01/29 09:06:28;;;;;;;35.17;21.40;;;;;;;4.21;90.85;100150.72;10385472;28;20037;-78
2023/01/29 09:11:29;;;;;;;33.88;21.23;;;;;;;4.49;90.76;100196.53;10392132;28;20048;-78
2023/01/29 09:16:30;;;;;;;43.55;23.80;;;;;;;4.72;90.35;100207.66;10388555;28;20178;-78
2023/01/29 09:21:30;;;;;;;36.45;21.83;;;;;;;4.93;90.16;100207.59;10390394;28;20029;-79
2023/01/29 09:26:31;;;;;;;46.05;25.67;;;;;;;5.15;89.91;100223.19;10389421;28;20409;-78
2023/01/29 09:31:32;;;;;;;41.17;22.52;;;;;;;5.25;89.16;100210.00;10388660;28;20517;-77
2023/01/29 09:36:33;;;;;;;34.17;19.48;;;;;;;4.82;88.84;100134.84;10387827;28;20044;-78
2023/01/29 09:42:00;;;;;;;37.55;22.38;;;;;;;5.53;87.34;100212.78;10402788;28;20033;-78
2023/01/29 09:47:06;;;;;;;37.72;22.00;;;;;;;5.52;88.79;100208.50;10413385;28;20092;-78
2023/01/29 09:52:29;;;;;;;42.55;24.48;;;;;;;5.41;85.97;100162.88;10394691;28;20135;-79
2023/01/29 09:58:02;;;;;;;38.97;22.00;;;;;;;5.43;86.62;100178.56;10371491;28;20038;-78
2023/01/29 10:03:27;;;;;;;43.03;25.48;;;;;;;5.31;85.27;100195.47;10372787;28;20140;-78
2023/01/29 10:08:35;;;;;;;96.80;49.00;;;;;;;4.56;86.60;100102.94;10371695;28;20050;-78
2023/01/29 10:14:02;;;;;;;57.75;31.58;;;;;;;5.01;86.13;100182.25;10397625;28;20049;-78
2023/01/29 10:19:29;;;;;;;57.50;34.35;;;;;;;5.02;86.80;100183.09;10413162;28;20041;-78
2023/01/29 10:25:03;;;;;;;51.35;32.03;;;;;;;5.27;85.82;100181.75;10412691;28;20500;-78
2023/01/29 10:30:29;;;;;;;53.33;31.00;;;;;;;5.28;85.75;100150.97;10400805;28;20053;-78
2023/01/29 10:35:43;;;;;;;47.95;30.80;;;;;;;5.47;85.10;100159.72;10408120;28;20095;-77
2023/01/29 10:41:00;;;;;;;52.42;31.38;;;;;;;5.65;84.74;100140.53;10411782;28;20180;-78
2023/01/29 10:46:27;;;;;;;51.92;30.60;;;;;;;5.63;82.81;100097.69;10411869;28;20410;-78
2023/01/29 10:51:49;;;;;;;87.63;51.42;;;;;;;5.89;81.96;100158.50;10412083;28;20490;-78
2023/01/29 10:56:59;;;;;;;62.17;34.15;;;;;;;5.57;82.08;100146.53;10411988;28;20125;-78
2023/01/29 11:02:02;;;;;;;53.85;32.50;;;;;;;5.34;83.57;100160.94;10412396;28;20053;-78
2023/01/29 11:07:03;;;;;;;58.95;31.90;;;;;;;4.41;82.38;100020.97;10416601;28;20569;-77
2023/01/29 11:12:13;;;;;;;53.15;30.85;;;;;;;5.07;81.93;100143.19;10418854;28;20075;-78
2023/01/29 11:17:19;;;;;;;55.10;31.13;;;;;;;5.13;82.44;100137.38;10418578;28;20041;-78
2023/01/29 11:22:25;;;;;;;65.05;36.75;;;;;;;5.19;83.20;100148.19;10418987;28;20063;-78
2023/01/29 11:27:28;;;;;;;48.30;28.98;;;;;;;5.31;83.60;100163.84;10418698;28;20045;-78
2023/01/29 11:32:33;;;;;;;48.05;30.02;;;;;;;5.31;82.91;100162.06;10418269;28;20037;-78
2023/01/29 11:37:39;;;;;;;46.10;28.88;;;;;;;5.28;83.25;100164.97;10417710;28;20049;-78
2023/01/29 11:42:40;;;;;;;54.85;30.77;;;;;;;4.94;84.41;100125.88;10418740;28;20053;-78
2023/01/29 11:47:40;;;;;;;157.35;116.43;;;;;;;5.06;83.43;100160.81;10418473;28;20069;-78
2023/01/29 11:52:42;;;;;;;58.17;38.47;;;;;;;5.06;84.24;100157.34;10417002;28;20050;-78
2023/01/29 11:57:51;;;;;;;51.90;30.65;;;;;;;5.02;84.32;100143.59;10418634;28;20051;-78
2023/01/29 12:03:06;;;;;;;46.72;28.42;;;;;;;5.07;84.48;100167.72;10417957;28;20041;-78
2023/01/29 12:08:17;;;;;;;118.50;80.85;;;;;;;4.99;85.31;100171.03;10415955;28;20037;-77
2023/01/29 12:13:26;;;;;;;52.50;27.65;;;;;;;4.94;85.12;100175.06;10417059;28;20041;-77
2023/01/29 12:18:30;;;;;;;48.33;27.75;;;;;;;4.56;85.33;100105.56;10415712;28;20060;-77
2023/01/29 12:23:53;;;;;;;46.73;27.77;;;;;;;4.67;85.69;100131.78;10416962;28;20596;-78
2023/01/29 12:29:12;;;;;;;57.58;33.22;;;;;;;4.75;85.44;100160.03;10415844;28;20050;-78
2023/01/29 12:34:26;;;;;;;48.42;27.25;;;;;;;4.77;85.62;100171.28;10416652;28;20072;-79
2023/01/29 12:39:27;;;;;;;59.05;29.30;;;;;;;4.76;86.29;100177.50;10416081;28;20044;-78
2023/01/29 12:44:35;;;;;;;51.42;27.23;;;;;;;4.57;85.82;100150.16;10415094;28;20065;-76
2023/01/29 12:49:39;;;;;;;58.55;27.75;;;;;;;4.63;86.49;100192.69;10415812;28;20045;-77
2023/01/29 12:54:49;;;;;;;50.72;28.30;;;;;;;4.14;86.31;100120.66;10415501;28;20052;-78
2023/01/29 13:00:00;;;;;;;59.03;30.38;;;;;;;4.49;87.23;100173.69;10415298;28;20045;-78
2023/01/29 13:05:23;;;;;;;54.40;28.48;;;;;;;4.65;86.65;100188.13;10408629;28;20386;-78
2023/01/29 13:10:30;;;;;;;58.47;29.23;;;;;;;4.53;87.35;100166.34;10388347;28;20041;-78
2023/01/29 13:15:37;;;;;;;47.65;26.50;;;;;;;4.62;87.60;100172.63;10413896;28;20044;-78
2023/01/29 13:20:38;;;;;;;46.92;27.33;;;;;;;4.34;87.13;100146.91;10414286;28;20033;-78
2023/01/29 13:25:39;;;;;;;51.35;29.45;;;;;;;4.30;87.28;100149.94;10413409;28;20493;-78
2023/01/29 13:30:40;;;;;;;54.30;28.17;;;;;;;4.32;86.92;100156.72;10413383;28;20041;-78
2023/01/29 13:35:44;;;;;;;48.03;29.27;;;;;;;4.25;87.23;100157.41;10413391;28;20103;-78
2023/01/29 13:40:49;;;;;;;48.13;26.85;;;;;;;3.80;87.31;100084.97;10413814;28;20041;-78
2023/01/29 13:45:53;;;;;;;46.53;25.95;;;;;;;4.13;87.51;100154.03;10413829;28;20061;-79
2023/01/29 13:50:56;;;;;;;52.75;29.40;;;;;;;3.93;87.34;100139.94;10398335;28;20127;-79
2023/01/29 13:56:43;;;;;;;52.35;26.15;;;;;;;4.33;87.64;100197.00;10390866;28;20489;-78
2023/01/29 14:01:46;;;;;;;50.50;26.65;;;;;;;3.92;87.37;100161.94;10387958;28;20129;-78
2023/01/29 14:06:51;;;;;;;55.45;27.00;;;;;;;4.17;88.00;100202.75;10391700;28;20084;-78
2023/01/29 14:11:52;;;;;;;54.55;29.48;;;;;;;4.00;88.29;100183.13;10384469;28;20046;-76
2023/01/29 14:17:01;;;;;;;62.97;29.45;;;;;;;4.07;88.14;100197.44;10398940;28;20410;-76
2023/01/29 14:22:04;;;;;;;46.67;24.38;;;;;;;3.96;88.43;100192.25;10370685;28;20034;-76
2023/01/29 14:27:05;;;;;;;54.30;25.83;;;;;;;3.95;88.40;100201.09;10389535;28;20042;-76
2023/01/29 14:32:05;;;;;;;41.13;23.55;;;;;;;3.87;88.95;100185.13;10390970;28;20497;-75
2023/01/29 14:37:38;;;;;;;49.15;27.13;;;;;;;3.88;88.83;100178.91;10399536;28;20046;-75
2023/01/29 14:42:53;;;;;;;50.63;22.55;;;;;;;3.96;88.97;100221.16;10381136;28;20053;-76
2023/01/29 14:47:59;;;;;;;58.67;28.50;;;;;;;3.93;88.85;100210.91;10420707;28;20057;-75
2023/01/29 14:53:13;;;;;;;52.60;28.55;;;;;;;3.80;88.69;100203.22;10418867;28;20454;-76
2023/01/29 14:58:45;;;;;;;97.80;40.88;;;;;;;3.58;89.42;100185.75;10420051;28;20046;-75
2023/01/29 15:03:50;;;;;;;49.45;27.05;;;;;;;3.04;89.31;100121.06;10416115;28;20095;-75
2023/01/29 15:09:03;;;;;;;65.65;31.48;;;;;;;3.63;89.41;100215.09;10411172;28;20045;-79
2023/01/29 15:14:27;;;;;;;73.30;32.72;;;;;;;3.45;89.57;100193.00;10392820;28;20041;-78
2023/01/29 15:19:34;;;;;;;53.95;27.02;;;;;;;3.47;90.05;100209.47;10380985;28;20045;-77
2023/01/29 15:24:37;;;;;;;65.70;31.45;;;;;;;3.26;89.48;100195.44;10381439;28;20050;-77
2023/01/29 15:29:39;;;;;;;60.72;32.10;;;;;;;3.26;90.49;100216.44;10407825;28;20090;-78
2023/01/29 15:34:43;;;;;;;58.65;31.50;;;;;;;2.81;89.75;100150.94;10402943;28;20046;-79
2023/01/29 15:39:44;;;;;;;58.03;30.07;;;;;;;2.99;89.65;100194.06;10389510;28;20509;-74
2023/01/29 15:44:45;;;;;;;346.75;146.98;;;;;;;2.97;89.99;100203.88;10407762;28;20057;-75
2023/01/29 15:49:46;;;;;;;190.30;86.13;;;;;;;2.51;90.78;100131.44;10389822;28;20046;-73
2023/01/29 15:54:47;;;;;;;172.18;68.38;;;;;;;3.00;90.47;100216.75;10401166;28;20054;-74
2023/01/29 15:59:50;;;;;;;152.05;64.57;;;;;;;2.98;90.46;100203.75;10388771;28;20033;-76
2023/01/29 16:04:52;;;;;;;170.43;70.38;;;;;;;3.14;89.72;100231.38;10390074;28;20052;-73
2023/01/29 16:09:54;;;;;;;144.50;60.45;;;;;;;3.01;90.34;100207.09;10386725;28;20068;-74
2023/01/29 16:14:56;;;;;;;140.10;58.05;;;;;;;3.12;90.11;100226.28;10394626;28;20418;-76
2023/01/29 16:19:58;;;;;;;151.32;69.95;;;;;;;3.21;90.24;100232.56;10382443;28;20064;-73
2023/01/29 16:25:10;;;;;;;103.30;43.67;;;;;;;3.09;89.99;100196.81;10378503;28;20130;-76
2023/01/29 16:30:17;;;;;;;101.97;44.10;;;;;;;3.17;90.39;100224.13;10374819;28;20121;-73
2023/01/29 16:35:18;;;;;;;101.03;42.67;;;;;;;2.78;89.91;100174.81;10376168;28;20056;-74
2023/01/29 16:40:32;;;;;;;86.32;36.15;;;;;;;2.63;90.60;100133.13;10407386;28;20037;-72
2023/01/29 16:45:33;;;;;;;79.45;37.00;;;;;;;3.14;89.92;100219.13;10403446;28;20061;-76
2023/01/29 16:50:37;;;;;;;90.72;40.67;;;;;;;3.08;90.13;100216.97;10382672;28;20132;-76
2023/01/29 16:55:42;;;;;;;90.32;42.90;;;;;;;2.53;90.35;100124.31;10374575;28;20033;-76
2023/01/29 17:00:46;;;;;;;73.88;37.08;;;;;;;2.35;90.25;100083.81;10374351;28;20046;-76
2023/01/29 17:05:47;;;;;;;86.00;39.77;;;;;;;2.67;90.60;100131.09;10372158;28;20033;-76
2023/01/29 17:10:48;;;;;;;88.78;37.38;;;;;;;3.05;90.61;100184.88;10373949;28;20038;-76
2023/01/29 17:15:49;;;;;;;73.90;36.05;;;;;;;2.92;90.31;100172.75;10373753;28;20045;-76
2023/01/29 17:20:51;;;;;;;76.13;33.58;;;;;;;2.55;90.37;100135.50;10373358;28;20057;-76
2023/01/29 17:25:52;;;;;;;75.53;31.92;;;;;;;2.42;90.12;100119.94;10377380;28;20402;-77
2023/01/29 17:30:53;;;;;;;75.38;29.10;;;;;;;2.88;90.94;100207.25;10413405;28;20049;-77
2023/01/29 17:35:54;;;;;;;61.33;30.63;;;;;;;2.35;91.00;100116.09;10413536;28;20409;-77
2023/01/29 17:41:15;;;;;;;58.67;29.20;;;;;;;2.89;91.93;100203.66;10407514;28;20054;-77
2023/01/29 17:46:17;;;;;;;53.58;27.60;;;;;;;2.58;91.30;100166.75;10375592;28;20139;-77
2023/01/29 17:51:18;;;;;;;51.10;26.27;;;;;;;2.81;91.46;100196.38;10372873;28;20080;-77
2023/01/29 17:56:29;;;;;;;52.03;26.52;;;;;;;2.66;92.08;100151.25;10372649;28;20089;-77
2023/01/29 18:01:30;;;;;;;52.80;29.48;;;;;;;2.73;91.79;100151.56;10372334;28;20044;-77
2023/01/29 18:06:31;;;;;;;67.78;28.92;;;;;;;3.08;91.89;100198.63;10372590;28;20042;-77
2023/01/29 18:11:34;;;;;;;54.13;27.63;;;;;;;2.69;91.69;100118.66;10372900;28;20124;-77
2023/01/29 18:16:37;;;;;;;56.72;27.35;;;;;;;2.60;91.14;100108.91;10376703;28;20038;-77
2023/01/29 18:21:38;;;;;;;55.15;29.13;;;;;;;2.87;91.72;100140.81;10380510;28;20041;-77
2023/01/29 18:26:39;;;;;;;51.55;25.58;;;;;;;3.09;91.39;100178.44;10380967;28;20050;-77
2023/01/29 18:31:39;;;;;;;54.45;28.02;;;;;;;3.10;91.86;100178.31;10379956;28;20037;-77
2023/01/29 18:36:45;;;;;;;59.35;30.45;;;;;;;3.08;91.49;100164.50;10380006;28;20042;-77
2023/01/29 18:41:46;;;;;;;50.63;27.77;;;;;;;2.77;91.87;100112.81;10379161;28;20465;-77
2023/01/29 18:46:47;;;;;;;61.78;29.27;;;;;;;3.12;91.50;100162.44;10378847;28;20111;-77
2023/01/29 18:51:47;;;;;;;74.60;33.75;;;;;;;2.66;91.86;100114.53;10379973;28;20521;-77
2023/01/29 18:56:48;;;;;;;105.53;47.83;;;;;;;2.74;92.25;100135.69;10379203;28;20038;-78
2023/01/29 19:01:49;;;;;;;97.32;43.65;;;;;;;2.50;92.65;100120.13;10410859;28;20037;-77
2023/01/29 19:06:49;;;;;;;82.03;33.97;;;;;;;2.56;92.71;100138.97;10419449;28;20059;-77
2023/01/29 19:11:50;;;;;;;70.82;34.05;;;;;;;1.86;92.40;100033.50;10419352;28;20087;-77
2023/01/29 19:16:51;;;;;;;109.78;45.45;;;;;;;2.57;92.65;100158.97;10418110;28;20485;-77
2023/01/29 19:21:53;;;;;;;69.47;32.55;;;;;;;2.63;92.75;100167.22;10420059;28;20038;-77
2023/01/29 19:26:54;;;;;;;67.13;30.33;;;;;;;2.18;92.45;100096.44;10419109;28;20445;-76
2023/01/29 19:31:55;;;;;;;59.13;31.95;;;;;;;2.64;92.55;100174.13;10418324;28;20470;-76
2023/01/29 19:36:55;;;;;;;63.20;32.22;;;;;;;2.64;92.85;100166.25;10408034;28;20145;-76
2023/01/29 19:41:56;;;;;;;56.53;31.05;;;;;;;2.38;93.04;100128.13;10392392;28;20061;-77
2023/01/29 19:46:57;;;;;;;56.15;30.00;;;;;;;2.54;93.41;100160.06;10377069;28;20453;-77
2023/01/29 19:51:59;;;;;;;56.63;29.52;;;;;;;2.24;93.76;100097.75;10382409;28;20414;-77
2023/01/29 19:57:00;;;;;;;50.65;28.83;;;;;;;1.94;94.07;100040.75;10388980;28;20095;-77
2023/01/29 20:02:01;;;;;;;58.25;30.58;;;;;;;2.40;94.17;100128.88;10390475;28;20037;-78
2023/01/29 20:07:02;;;;;;;57.47;31.48;;;;;;;2.29;95.34;100121.84;10417365;28;20490;-77
2023/01/29 20:12:02;;;;;;;57.88;31.60;;;;;;;1.95;95.57;100061.59;10417275;28;20059;-77
2023/01/29 20:17:03;;;;;;;54.88;31.40;;;;;;;2.31;95.84;100121.72;10416397;28;20049;-76
2023/01/29 20:22:04;;;;;;;60.42;33.60;;;;;;;2.28;95.86;100122.78;10416388;28;20048;-77
2023/01/29 20:27:05;;;;;;;57.95;33.17;;;;;;;2.34;96.01;100124.09;10415198;28;20049;-76
2023/01/29 20:32:07;;;;;;;64.40;34.33;;;;;;;2.47;96.42;100164.94;10415800;28;20041;-77
2023/01/29 20:37:08;;;;;;;52.92;32.67;;;;;;;2.29;96.64;100135.75;10415616;28;20076;-77
2023/01/29 20:42:09;;;;;;;59.83;32.25;;;;;;;2.41;96.05;100149.69;10415333;28;20061;-77
2023/01/29 20:47:10;;;;;;;54.30;32.35;;;;;;;2.24;96.23;100137.94;10416441;28;20057;-77
2023/01/29 20:52:11;;;;;;;53.75;32.85;;;;;;;2.28;96.42;100157.69;10414898;28;20041;-77
2023/01/29 20:57:12;;;;;;;59.72;33.72;;;;;;;2.17;96.82;100139.34;10415399;28;20041;-77
2023/01/29 21:02:13;;;;;;;62.38;33.45;;;;;;;2.13;96.65;100137.94;10415832;28;20041;-76
2023/01/29 21:07:14;;;;;;;56.40;32.58;;;;;;;2.04;96.67;100128.16;10414876;28;20045;-77
2023/01/29 21:12:15;;;;;;;61.13;34.53;;;;;;;2.13;97.09;100150.19;10414384;28;20044;-76
2023/01/29 21:17:15;;;;;;;56.03;32.78;;;;;;;1.85;97.03;100114.78;10415197;28;20503;-77
2023/01/29 21:22:16;;;;;;;64.75;34.92;;;;;;;1.51;97.37;100083.34;10413736;28;20052;-77
2023/01/29 21:27:17;;;;;;;57.08;33.50;;;;;;;1.83;97.45;100148.97;10414124;28;20080;-77
2023/01/29 21:32:17;;;;;;;61.60;34.50;;;;;;;1.54;97.44;100112.72;10413565;28;20037;-76
2023/01/29 21:37:18;;;;;;;65.15;35.30;;;;;;;1.71;97.84;100142.06;10413306;28;20039;-76
2023/01/29 21:47:39;;;;;;;63.75;34.40;;;;;;;0.37;98.15;99949.72;10413035;28;20057;-77
2023/01/29 21:52:40;;;;;;;63.67;34.50;;;;;;;1.18;98.19;100092.75;10412638;28;20578;-77
2023/01/29 21:57:41;;;;;;;62.95;35.05;;;;;;;1.09;98.47;100109.16;10413883;28;20080;-77
2023/01/29 22:02:43;;;;;;;66.60;35.38;;;;;;;1.21;99.00;100137.03;10406543;28;20064;-76
2023/01/29 22:07:43;;;;;;;64.95;36.42;;;;;;;0.91;98.86;100100.88;10372480;28;20050;-77
2023/01/29 22:12:45;;;;;;;62.83;36.25;;;;;;;1.11;99.17;100136.03;10371651;28;20050;-77
2023/01/29 22:17:45;;;;;;;56.42;30.50;;;;;;;1.08;98.95;100150.19;10371883;28;20041;-77
2023/01/29 22:22:46;;;;;;;65.63;34.58;;;;;;;0.53;98.55;100078.31;10371507;28;20049;-77
2023/01/29 22:27:47;;;;;;;67.50;36.45;;;;;;;0.85;99.22;100148.38;10371888;28;20406;-77
2023/01/29 22:32:49;;;;;;;67.53;35.80;;;;;;;0.48;98.73;100119.66;10371984;28;20521;-77
2023/01/29 22:37:49;;;;;;;75.85;38.67;;;;;;;0.54;98.69;100139.28;10371976;28;20477;-78
2023/01/29 22:42:50;;;;;;;71.97;38.70;;;;;;;0.34;99.01;100131.06;10372883;28;20132;-77
2023/01/29 22:47:51;;;;;;;69.57;36.58;;;;;;;0.25;99.90;100113.44;10370716;28;20058;-76
2023/01/29 22:52:52;;;;;;;65.00;34.05;;;;;;;0.49;99.67;100150.06;10370857;28;20398;-76
2023/01/29 22:57:53;;;;;;;76.10;37.42;;;;;;;0.44;100.00;100144.31;10371036;28;20042;-76
2023/01/29 23:02:54;;;;;;;77.70;37.58;;;;;;;0.57;100.00;100159.97;10376477;28;20042;-76
2023/01/29 23:07:54;;;;;;;72.93;39.60;;;;;;;0.48;100.00;100139.69;10378157;28;20050;-76
2023/01/29 23:12:56;;;;;;;74.35;39.88;;;;;;;0.54;100.00;100136.66;10378438;28;20570;-76
2023/01/29 23:17:57;;;;;;;86.28;40.58;;;;;;;0.49;100.00;100117.88;10378540;28;20042;-76
2023/01/29 23:22:58;;;;;;;74.78;39.15;;;;;;;0.84;100.00;100167.66;10379030;28;20046;-76
2023/01/29 23:27:59;;;;;;;70.15;37.88;;;;;;;0.48;100.00;100097.88;10377890;28;20045;-76